sensor_id;sensor_type;location;lat;lon;timestamp;pressure;altitude;pressure_sealevel;temperature;humidity
6464;BME280;3265;42.694;23.282;2023-03-22T00:02:23;94299.28;;;10.51;100.00
6464;BME280;3265;42.694;23.282;2023-03-22T00:04:52;94305.38;;;10.45;100.00
6464;BME280;3265;42.694;23.282;2023-03-22T00:07:18;94305.84;;;10.42;100.00
6464;BME280;3265;42.694;23.282;2023-03-22T00:09:45;94289.22;;;10.31;100.00
6464;BME280;3265;42.694;23.282;2023-03-22T00:12:12;94304.91;;;10.36;100.00
6464;BME280;3265;42.694;23.282;2023-03-22T00:14:39;94290.34;;;10.23;100.00
6464;BME280;3265;42.694;23.282;2023-03-22T00:17:05;94303.56;;;10.34;100.00
6464;BME280;3265;42.694;23.282;2023-03-22T00:19:33;94304.16;;;10.36;100.00
6464;BME280;3265;42.694;23.282;2023-03-22T00:22:01;94307.84;;;10.40;100.00
6464;BME280;3265;42.694;23.282;2023-03-22T00:24:30;94303.69;;;10.39;100.00
6464;BME280;3265;42.694;23.282;2023-03-22T00:26:57;94305.50;;;10.38;100.00
6464;BME280;3265;42.694;23.282;2023-03-22T00:29:27;94298.81;;;10.42;100.00
6464;BME280;3265;42.694;23.282;2023-03-22T00:31:54;94295.66;;;10.40;100.00
6464;BME280;3265;42.694;23.282;2023-03-22T00:34:21;94299.28;;;10.39;100.00
6464;BME280;3265;42.694;23.282;2023-03-22T00:36:47;94300.06;;;10.28;100.00
6464;BME280;3265;42.694;23.282;2023-03-22T00:39:17;94297.38;;;10.35;100.00
6464;BME280;3265;42.694;23.282;2023-03-22T00:41:44;94297.59;;;10.33;100.00
6464;BME280;3265;42.694;23.282;2023-03-22T00:44:11;94283.13;;;10.25;100.00
6464;BME280;3265;42.694;23.282;2023-03-22T00:46:38;94292.16;;;10.23;100.00
6464;BME280;3265;42.694;23.282;2023-03-22T00:49:04;94285.72;;;10.25;100.00
6464;BME280;3265;42.694;23.282;2023-03-22T00:51:31;94281.53;;;10.13;100.00
6464;BME280;3265;42.694;23.282;2023-03-22T00:53:58;94281.03;;;10.04;100.00
6464;BME280;3265;42.694;23.282;2023-03-22T00:56:26;94289.47;;;9.88;100.00
6464;BME280;3265;42.694;23.282;2023-03-22T00:58:53;94273.41;;;9.68;100.00
6464;BME280;3265;42.694;23.282;2023-03-22T01:01:20;94278.16;;;9.71;100.00
6464;BME280;3265;42.694;23.282;2023-03-22T01:03:48;94276.31;;;9.60;100.00
6464;BME280;3265;42.694;23.282;2023-03-22T01:06:15;94280.44;;;9.49;100.00
6464;BME280;3265;42.694;23.282;2023-03-22T01:08:42;94276.72;;;9.45;100.00
6464;BME280;3265;42.694;23.282;2023-03-22T01:11:09;94271.88;;;9.49;100.00
6464;BME280;3265;42.694;23.282;2023-03-22T01:13:38;94273.44;;;9.50;100.00
6464;BME280;3265;42.694;23.282;2023-03-22T01:16:08;94272.19;;;9.52;100.00
6464;BME280;3265;42.694;23.282;2023-03-22T01:18:35;94272.69;;;9.61;100.00
6464;BME280;3265;42.694;23.282;2023-03-22T01:21:03;94268.28;;;9.61;100.00
6464;BME280;3265;42.694;23.282;2023-03-22T01:23:30;94254.03;;;9.52;100.00
6464;BME280;3265;42.694;23.282;2023-03-22T01:25:57;94267.41;;;9.67;100.00
6464;BME280;3265;42.694;23.282;2023-03-22T01:28:24;94263.53;;;9.58;100.00
6464;BME280;3265;42.694;23.282;2023-03-22T01:30:53;94268.56;;;9.42;100.00
6464;BME280;3265;42.694;23.282;2023-03-22T01:33:20;94266.97;;;9.41;100.00
6464;BME280;3265;42.694;23.282;2023-03-22T01:35:47;94258.56;;;9.45;100.00
6464;BME280;3265;42.694;23.282;2023-03-22T01:38:13;94263.88;;;9.50;100.00
6464;BME280;3265;42.694;23.282;2023-03-22T01:40:40;94255.75;;;9.58;100.00
6464;BME280;3265;42.694;23.282;2023-03-22T01:43:12;94258.34;;;9.58;100.00
6464;BME280;3265;42.694;23.282;2023-03-22T01:45:41;94249.00;;;9.57;100.00
6464;BME280;3265;42.694;23.282;2023-03-22T01:48:24;94249.56;;;9.59;100.00
6464;BME280;3265;42.694;23.282;2023-03-22T01:51:03;94235.69;;;9.54;100.00
6464;BME280;3265;42.694;23.282;2023-03-22T01:53:35;94251.63;;;9.69;100.00
6464;BME280;3265;42.694;23.282;2023-03-22T01:56:06;94252.06;;;9.66;100.00
6464;BME280;3265;42.694;23.282;2023-03-22T01:58:35;94249.13;;;9.62;100.00
6464;BME280;3265;42.694;23.282;2023-03-22T02:01:04;94235.69;;;9.54;100.00
6464;BME280;3265;42.694;23.282;2023-03-22T02:03:37;94253.53;;;9.62;100.00
6464;BME280;3265;42.694;23.282;2023-03-22T02:06:09;94252.72;;;9.61;100.00
6464;BME280;3265;42.694;23.282;2023-03-22T02:08:35;94255.91;;;9.63;100.00
6464;BME280;3265;42.694;23.282;2023-03-22T02:11:05;94257.25;;;9.66;100.00
6464;BME280;3265;42.694;23.282;2023-03-22T02:13:39;94255.75;;;9.58;100.00
6464;BME280;3265;42.694;23.282;2023-03-22T02:16:27;94255.59;;;9.42;100.00
6464;BME280;3265;42.694;23.282;2023-03-22T02:19:13;94246.53;;;9.33;100.00
6464;BME280;3265;42.694;23.282;2023-03-22T02:22:20;94257.72;;;9.33;100.00
6464;BME280;3265;42.694;23.282;2023-03-22T02:28:39;94259.66;;;9.38;100.00
6464;BME280;3265;42.694;23.282;2023-03-22T02:31:20;94255.47;;;9.37;100.00
6464;BME280;3265;42.694;23.282;2023-03-22T02:40:11;94267.44;;;9.38;100.00
6464;BME280;3265;42.694;23.282;2023-03-22T02:42:45;94269.56;;;9.41;100.00
6464;BME280;3265;42.694;23.282;2023-03-22T02:45:18;94263.63;;;9.40;100.00
6464;BME280;3265;42.694;23.282;2023-03-22T02:47:51;94265.78;;;9.43;100.00
6464;BME280;3265;42.694;23.282;2023-03-22T02:50:23;94264.63;;;9.39;100.00
6464;BME280;3265;42.694;23.282;2023-03-22T02:52:53;94263.19;;;9.43;100.00
6464;BME280;3265;42.694;23.282;2023-03-22T02:55:28;94271.66;;;9.50;100.00
6464;BME280;3265;42.694;23.282;2023-03-22T02:57:58;94271.19;;;9.53;100.00
6464;BME280;3265;42.694;23.282;2023-03-22T03:00:26;94266.47;;;9.50;100.00
6464;BME280;3265;42.694;23.282;2023-03-22T03:02:57;94275.75;;;9.58;100.00
6464;BME280;3265;42.694;23.282;2023-03-22T03:05:29;94276.94;;;9.55;100.00
6464;BME280;3265;42.694;23.282;2023-03-22T03:07:59;94273.00;;;9.53;100.00
6464;BME280;3265;42.694;23.282;2023-03-22T03:10:30;94276.38;;;9.53;100.00
6464;BME280;3265;42.694;23.282;2023-03-22T03:12:57;94273.00;;;9.53;100.00
6464;BME280;3265;42.694;23.282;2023-03-22T03:15:24;94271.88;;;9.49;100.00
6464;BME280;3265;42.694;23.282;2023-03-22T03:20:50;94275.16;;;9.56;100.00
6464;BME280;3265;42.694;23.282;2023-03-22T03:23:27;94271.88;;;9.49;100.00
6464;BME280;3265;42.694;23.282;2023-03-22T03:26:02;94275.59;;;9.53;100.00
6464;BME280;3265;42.694;23.282;2023-03-22T03:28:35;94277.97;;;9.54;100.00
6464;BME280;3265;42.694;23.282;2023-03-22T03:31:12;94278.41;;;9.51;100.00
6464;BME280;3265;42.694;23.282;2023-03-22T03:33:47;94286.75;;;9.53;100.00
6464;BME280;3265;42.694;23.282;2023-03-22T03:36:17;94285.53;;;9.56;100.00
6464;BME280;3265;42.694;23.282;2023-03-22T03:38:48;94281.13;;;9.56;100.00
6464;BME280;3265;42.694;23.282;2023-03-22T03:41:20;94286.25;;;9.63;100.00
6464;BME280;3265;42.694;23.282;2023-03-22T03:43:48;94284.22;;;9.65;100.00
6464;BME280;3265;42.694;23.282;2023-03-22T03:46:16;94283.06;;;9.61;100.00
6464;BME280;3265;42.694;23.282;2023-03-22T03:48:45;94289.94;;;9.55;100.00
6464;BME280;3265;42.694;23.282;2023-03-22T03:51:13;94290.72;;;9.56;100.00
6464;BME280;3265;42.694;23.282;2023-03-22T03:53:40;94292.63;;;9.49;100.00
6464;BME280;3265;42.694;23.282;2023-03-22T03:56:08;94298.94;;;9.53;100.00
6464;BME280;3265;42.694;23.282;2023-03-22T03:58:37;94294.78;;;9.52;100.00
6464;BME280;3265;42.694;23.282;2023-03-22T04:01:04;94303.19;;;9.47;100.00
6464;BME280;3265;42.694;23.282;2023-03-22T04:03:31;94293.19;;;9.51;100.00
6464;BME280;3265;42.694;23.282;2023-03-22T04:05:58;94309.41;;;9.46;100.00
6464;BME280;3265;42.694;23.282;2023-03-22T04:08:25;94304.22;;;9.46;100.00
6464;BME280;3265;42.694;23.282;2023-03-22T04:10:52;94301.84;;;9.45;100.00
6464;BME280;3265;42.694;23.282;2023-03-22T04:13:19;94297.88;;;9.42;100.00
6464;BME280;3265;42.694;23.282;2023-03-22T04:15:53;94301.84;;;9.45;100.00
6464;BME280;3265;42.694;23.282;2023-03-22T04:18:21;94305.00;;;9.47;100.00
6464;BME280;3265;42.694;23.282;2023-03-22T04:20:48;94310.19;;;9.47;100.00
6464;BME280;3265;42.694;23.282;2023-03-22T04:23:18;94300.03;;;9.45;100.00
6464;BME280;3265;42.694;23.282;2023-03-22T04:25:55;94308.47;;;9.41;100.00
6464;BME280;3265;42.694;23.282;2023-03-22T04:28:24;94303.38;;;9.34;100.00
6464;BME280;3265;42.694;23.282;2023-03-22T04:30:53;94307.78;;;9.34;100.00
6464;BME280;3265;42.694;23.282;2023-03-22T04:33:22;94304.75;;;9.37;100.00
6464;BME280;3265;42.694;23.282;2023-03-22T04:35:48;94306.47;;;9.43;100.00
6464;BME280;3265;42.694;23.282;2023-03-22T04:38:21;94312.53;;;9.37;100.00
6464;BME280;3265;42.694;23.282;2023-03-22T04:40:49;94314.75;;;9.33;100.00
6464;BME280;3265;42.694;23.282;2023-03-22T04:43:16;94309.81;;;9.13;100.00
6464;BME280;3265;42.694;23.282;2023-03-22T04:45:43;94318.75;;;9.18;100.00
6464;BME280;3265;42.694;23.282;2023-03-22T04:48:11;94314.00;;;9.15;100.00
6464;BME280;3265;42.694;23.282;2023-03-22T04:50:39;94320.53;;;9.17;100.00
6464;BME280;3265;42.694;23.282;2023-03-22T04:53:06;94325.50;;;9.19;100.00
6464;BME280;3265;42.694;23.282;2023-03-22T04:55:34;94329.88;;;9.18;100.00
6464;BME280;3265;42.694;23.282;2023-03-22T04:58:01;94329.88;;;9.18;100.00
6464;BME280;3265;42.694;23.282;2023-03-22T05:00:28;94330.69;;;9.19;100.00
6464;BME280;3265;42.694;23.282;2023-03-22T05:02:56;94331.25;;;9.21;100.00
6464;BME280;3265;42.694;23.282;2023-03-22T05:05:25;94336.44;;;9.21;100.00
6464;BME280;3265;42.694;23.282;2023-03-22T05:07:51;94335.66;;;9.20;100.00
6464;BME280;3265;42.694;23.282;2023-03-22T05:10:18;94330.13;;;9.17;100.00
6464;BME280;3265;42.694;23.282;2023-03-22T05:12:45;94337.59;;;9.25;100.00
6464;BME280;3265;42.694;23.282;2023-03-22T05:15:12;94345.19;;;9.26;100.00
6464;BME280;3265;42.694;23.282;2023-03-22T05:17:39;94334.81;;;9.26;100.00
6464;BME280;3265;42.694;23.282;2023-03-22T05:20:07;94342.34;;;9.28;100.00
6464;BME280;3265;42.694;23.282;2023-03-22T05:22:36;94349.75;;;9.24;100.00
6464;BME280;3265;42.694;23.282;2023-03-22T05:25:05;94348.53;;;9.27;100.00
6464;BME280;3265;42.694;23.282;2023-03-22T05:27:32;94343.94;;;9.29;100.00
6464;BME280;3265;42.694;23.282;2023-03-22T05:29:59;94352.94;;;9.26;100.00
6464;BME280;3265;42.694;23.282;2023-03-22T05:32:27;94357.63;;;9.36;100.00
6464;BME280;3265;42.694;23.282;2023-03-22T05:34:54;94353.66;;;9.33;100.00
6464;BME280;3265;42.694;23.282;2023-03-22T05:37:21;94361.22;;;9.35;100.00
6464;BME280;3265;42.694;23.282;2023-03-22T05:39:49;94359.78;;;9.39;100.00
6464;BME280;3265;42.694;23.282;2023-03-22T05:42:16;94349.97;;;9.41;100.00
6464;BME280;3265;42.694;23.282;2023-03-22T05:44:43;94351.34;;;9.43;100.00
6464;BME280;3265;42.694;23.282;2023-03-22T05:47:10;94361.63;;;9.50;100.00
6464;BME280;3265;42.694;23.282;2023-03-22T05:49:37;94358.84;;;9.51;100.00
6464;BME280;3265;42.694;23.282;2023-03-22T05:52:04;94352.97;;;9.56;100.00
6464;BME280;3265;42.694;23.282;2023-03-22T05:54:31;94373.84;;;9.61;100.00
6464;BME280;3265;42.694;23.282;2023-03-22T05:57:02;94364.28;;;9.61;100.00
6464;BME280;3265;42.694;23.282;2023-03-22T05:59:29;94370.50;;;9.60;100.00
6464;BME280;3265;42.694;23.282;2023-03-22T06:01:59;94375.88;;;9.59;100.00
6464;BME280;3265;42.694;23.282;2023-03-22T06:04:26;94380.06;;;9.60;100.00
6464;BME280;3265;42.694;23.282;2023-03-22T06:06:52;94376.13;;;9.57;100.00
6464;BME280;3265;42.694;23.282;2023-03-22T06:09:19;94377.47;;;9.60;100.00
6464;BME280;3265;42.694;23.282;2023-03-22T06:11:46;94377.25;;;9.61;100.00
6464;BME280;3265;42.694;23.282;2023-03-22T06:14:14;94378.78;;;9.69;100.00
6464;BME280;3265;42.694;23.282;2023-03-22T06:16:41;94372.41;;;9.65;100.00
6464;BME280;3265;42.694;23.282;2023-03-22T06:19:08;94387.69;;;9.73;100.00
6464;BME280;3265;42.694;23.282;2023-03-22T06:21:35;94387.25;;;9.76;100.00
6464;BME280;3265;42.694;23.282;2023-03-22T06:24:02;94384.88;;;9.75;100.00
6464;BME280;3265;42.694;23.282;2023-03-22T06:26:28;94390.44;;;9.78;100.00
6464;BME280;3265;42.694;23.282;2023-03-22T06:28:55;94383.66;;;9.77;100.00
6464;BME280;3265;42.694;23.282;2023-03-22T06:31:24;94390.13;;;9.86;100.00
6464;BME280;3265;42.694;23.282;2023-03-22T06:33:50;94387.41;;;9.93;100.00
6464;BME280;3265;42.694;23.282;2023-03-22T06:36:17;94393.63;;;9.92;100.00
6464;BME280;3265;42.694;23.282;2023-03-22T06:38:44;94392.00;;;9.79;100.00
6464;BME280;3265;42.694;23.282;2023-03-22T06:41:11;94402.31;;;9.86;100.00
6464;BME280;3265;42.694;23.282;2023-03-22T06:43:38;94405.56;;;9.81;100.00
6464;BME280;3265;42.694;23.282;2023-03-22T06:46:05;94402.13;;;9.69;100.00
6464;BME280;3265;42.694;23.282;2023-03-22T06:48:33;94401.25;;;9.75;100.00
6464;BME280;3265;42.694;23.282;2023-03-22T06:51:00;94403.63;;;9.77;100.00
6464;BME280;3265;42.694;23.282;2023-03-22T06:53:27;94404.41;;;9.77;100.00
6464;BME280;3265;42.694;23.282;2023-03-22T06:55:54;94411.19;;;9.78;100.00
6464;BME280;3265;42.694;23.282;2023-03-22T06:58:21;94405.81;;;9.91;100.00
6464;BME280;3265;42.694;23.282;2023-03-22T07:00:48;94410.78;;;9.93;100.00
6464;BME280;3265;42.694;23.282;2023-03-22T07:03:15;94416.94;;;9.98;100.00
6464;BME280;3265;42.694;23.282;2023-03-22T07:05:43;94410.22;;;9.91;100.00
6464;BME280;3265;42.694;23.282;2023-03-22T07:08:10;94417.56;;;9.94;100.00
6464;BME280;3265;42.694;23.282;2023-03-22T07:10:37;94418.72;;;9.98;100.00
6464;BME280;3265;42.694;23.282;2023-03-22T07:13:03;94411.50;;;10.00;100.00
6464;BME280;3265;42.694;23.282;2023-03-22T07:15:30;94417.00;;;9.92;100.00
6464;BME280;3265;42.694;23.282;2023-03-22T07:17:58;94409.53;;;9.84;100.00
6464;BME280;3265;42.694;23.282;2023-03-22T07:20:25;94421.44;;;10.03;100.00
6464;BME280;3265;42.694;23.282;2023-03-22T07:22:54;94426.31;;;10.11;100.00
6464;BME280;3265;42.694;23.282;2023-03-22T07:25:20;94431.31;;;10.12;100.00
6464;BME280;3265;42.694;23.282;2023-03-22T07:27:47;94437.25;;;10.01;100.00
6464;BME280;3265;42.694;23.282;2023-03-22T07:30:14;94444.38;;;10.06;100.00
6464;BME280;3265;42.694;23.282;2023-03-22T07:32:41;94442.50;;;10.13;100.00
6464;BME280;3265;42.694;23.282;2023-03-22T07:35:08;94439.81;;;10.19;100.00
6464;BME280;3265;42.694;23.282;2023-03-22T07:37:35;94440.41;;;10.21;100.00
6464;BME280;3265;42.694;23.282;2023-03-22T07:40:04;94443.34;;;10.25;100.00
6464;BME280;3265;42.694;23.282;2023-03-22T07:42:33;94443.50;;;10.30;100.00
6464;BME280;3265;42.694;23.282;2023-03-22T07:45:00;94447.66;;;10.31;100.00
6464;BME280;3265;42.694;23.282;2023-03-22T07:47:27;94454.66;;;10.31;100.00
6464;BME280;3265;42.694;23.282;2023-03-22T07:49:54;94452.28;;;10.29;100.00
6464;BME280;3265;42.694;23.282;2023-03-22T07:52:20;94460.06;;;10.29;100.00
6464;BME280;3265;42.694;23.282;2023-03-22T07:54:50;94457.13;;;10.25;100.00
6464;BME280;3265;42.694;23.282;2023-03-22T07:57:18;94452.81;;;10.19;100.00
6464;BME280;3265;42.694;23.282;2023-03-22T07:59:45;94456.44;;;10.18;100.00
6464;BME280;3265;42.694;23.282;2023-03-22T08:02:15;94441.09;;;10.10;100.00
6464;BME280;3265;42.694;23.282;2023-03-22T08:04:42;94444.94;;;10.08;100.00
6464;BME280;3265;42.694;23.282;2023-03-22T08:07:08;94467.25;;;10.15;100.00
6464;BME280;3265;42.694;23.282;2023-03-22T08:09:36;94461.81;;;10.17;100.00
6464;BME280;3265;42.694;23.282;2023-03-22T08:12:03;94461.63;;;10.18;100.00
6464;BME280;3265;42.694;23.282;2023-03-22T08:14:31;94465.00;;;10.19;100.00
6464;BME280;3265;42.694;23.282;2023-03-22T08:16:59;94439.06;;;10.01;100.00
6464;BME280;3265;42.694;23.282;2023-03-22T08:19:26;94462.28;;;10.14;100.00
6464;BME280;3265;42.694;23.282;2023-03-22T08:21:52;94455.28;;;10.14;100.00
6464;BME280;3265;42.694;23.282;2023-03-22T08:24:19;94461.63;;;10.18;100.00
6464;BME280;3265;42.694;23.282;2023-03-22T08:26:46;94463.44;;;10.18;100.00
6464;BME280;3265;42.694;23.282;2023-03-22T08:29:14;94467.94;;;10.22;100.00
6464;BME280;3265;42.694;23.282;2023-03-22T08:31:42;94472.66;;;10.14;100.00
6464;BME280;3265;42.694;23.282;2023-03-22T08:34:09;94463.34;;;10.06;100.00
6464;BME280;3265;42.694;23.282;2023-03-22T08:36:36;94470.22;;;10.01;100.00
6464;BME280;3265;42.694;23.282;2023-03-22T08:39:04;94471.94;;;10.07;100.00
6464;BME280;3265;42.694;23.282;2023-03-22T08:41:31;94471.88;;;9.95;100.00
6464;BME280;3265;42.694;23.282;2023-03-22T08:43:57;94442.97;;;9.74;100.00
6464;BME280;3265;42.694;23.282;2023-03-22T08:46:24;94465.09;;;9.76;100.00
6464;BME280;3265;42.694;23.282;2023-03-22T08:48:55;94468.97;;;9.85;100.00
6464;BME280;3265;42.694;23.282;2023-03-22T08:51:25;94478.13;;;10.06;100.00
6464;BME280;3265;42.694;23.282;2023-03-22T08:53:52;94476.69;;;10.10;100.00
6464;BME280;3265;42.694;23.282;2023-03-22T08:56:18;94482.47;;;9.94;100.00
6464;BME280;3265;42.694;23.282;2023-03-22T08:58:47;94474.53;;;9.89;100.00
6464;BME280;3265;42.694;23.282;2023-03-22T09:01:14;94482.63;;;9.81;100.00
6464;BME280;3265;42.694;23.282;2023-03-22T09:03:42;94475.56;;;9.69;100.00
6464;BME280;3265;42.694;23.282;2023-03-22T09:06:11;94473.03;;;9.45;100.00
6464;BME280;3265;42.694;23.282;2023-03-22T09:08:38;94472.13;;;9.33;100.00
6464;BME280;3265;42.694;23.282;2023-03-22T09:11:07;94476.09;;;9.35;100.00
6464;BME280;3265;42.694;23.282;2023-03-22T09:13:34;94467.75;;;9.33;100.00
6464;BME280;3265;42.694;23.282;2023-03-22T09:16:01;94459.41;;;9.31;100.00
6464;BME280;3265;42.694;23.282;2023-03-22T09:18:29;94479.47;;;9.60;100.00
6464;BME280;3265;42.694;23.282;2023-03-22T09:20:55;94485.84;;;9.76;100.00
6464;BME280;3265;42.694;23.282;2023-03-22T09:23:24;94490.47;;;9.74;100.00
6464;BME280;3265;42.694;23.282;2023-03-22T09:25:51;94485.78;;;9.64;100.00
6464;BME280;3265;42.694;23.282;2023-03-22T09:28:18;94472.16;;;9.51;100.00
6464;BME280;3265;42.694;23.282;2023-03-22T09:30:45;94493.19;;;9.61;100.00
6464;BME280;3265;42.694;23.282;2023-03-22T09:33:12;94478.44;;;9.61;100.00
6464;BME280;3265;42.694;23.282;2023-03-22T09:35:39;94483.34;;;9.69;100.00
6464;BME280;3265;42.694;23.282;2023-03-22T09:38:07;94475.31;;;9.53;100.00
6464;BME280;3265;42.694;23.282;2023-03-22T09:40:40;94463.66;;;9.44;100.00
6464;BME280;3265;42.694;23.282;2023-03-22T09:43:12;94411.28;;;9.17;100.00
6464;BME280;3265;42.694;23.282;2023-03-22T09:45:49;94432.38;;;9.39;100.00
6464;BME280;3265;42.694;23.282;2023-03-22T09:48:21;94479.47;;;9.60;100.00
6464;BME280;3265;42.694;23.282;2023-03-22T09:50:51;94484.66;;;9.60;100.00
6464;BME280;3265;42.694;23.282;2023-03-22T09:53:23;94460.34;;;9.37;100.00
6464;BME280;3265;42.694;23.282;2023-03-22T09:55:57;94421.84;;;9.16;100.00
6464;BME280;3265;42.694;23.282;2023-03-22T09:58:30;94482.81;;;9.61;100.00
6464;BME280;3265;42.694;23.282;2023-03-22T10:01:01;94488.09;;;9.73;100.00
6464;BME280;3265;42.694;23.282;2023-03-22T10:03:53;94481.53;;;9.70;100.00
6464;BME280;3265;42.694;23.282;2023-03-22T10:06:23;94488.03;;;9.79;100.00
6464;BME280;3265;42.694;23.282;2023-03-22T10:08:58;94473.59;;;9.83;100.00
6464;BME280;3265;42.694;23.282;2023-03-22T10:11:38;94489.00;;;9.96;100.00
6464;BME280;3265;42.694;23.282;2023-03-22T10:14:19;94492.34;;;10.03;100.00
6464;BME280;3265;42.694;23.282;2023-03-22T10:16:51;94492.03;;;10.11;100.00
6464;BME280;3265;42.694;23.282;2023-03-22T10:19:23;94494.59;;;10.18;100.00
6464;BME280;3265;42.694;23.282;2023-03-22T10:21:53;94491.56;;;10.21;100.00
6464;BME280;3265;42.694;23.282;2023-03-22T10:24:25;94490.44;;;10.29;100.00
6464;BME280;3265;42.694;23.282;2023-03-22T10:26:55;94488.25;;;10.44;100.00
6464;BME280;3265;42.694;23.282;2023-03-22T10:29:24;94499.13;;;10.52;100.00
6464;BME280;3265;42.694;23.282;2023-03-22T10:31:55;94480.13;;;10.52;100.00
6464;BME280;3265;42.694;23.282;2023-03-22T10:34:25;94505.59;;;10.61;100.00
6464;BME280;3265;42.694;23.282;2023-03-22T10:36:57;94500.28;;;10.68;100.00
6464;BME280;3265;42.694;23.282;2023-03-22T10:39:29;94501.69;;;10.70;100.00
6464;BME280;3265;42.694;23.282;2023-03-22T10:42:00;94487.97;;;10.63;100.00
6464;BME280;3265;42.694;23.282;2023-03-22T10:44:31;94476.91;;;10.68;100.00
6464;BME280;3265;42.694;23.282;2023-03-22T10:47:04;94495.91;;;10.80;100.00
6464;BME280;3265;42.694;23.282;2023-03-22T10:49:37;94480.31;;;10.80;100.00
6464;BME280;3265;42.694;23.282;2023-03-22T10:52:18;94496.38;;;10.89;100.00
6464;BME280;3265;42.694;23.282;2023-03-22T10:54:46;94493.00;;;10.88;100.00
6464;BME280;3265;42.694;23.282;2023-03-22T10:57:15;94493.00;;;10.88;100.00
6464;BME280;3265;42.694;23.282;2023-03-22T10:59:44;94493.69;;;10.95;100.00
6464;BME280;3265;42.694;23.282;2023-03-22T11:02:21;94493.59;;;11.02;100.00
6464;BME280;3265;42.694;23.282;2023-03-22T11:04:50;94494.16;;;11.04;100.00
6464;BME280;3265;42.694;23.282;2023-03-22T11:07:30;94495.84;;;11.10;100.00
6464;BME280;3265;42.694;23.282;2023-03-22T11:10:10;94492.00;;;11.12;100.00
6464;BME280;3265;42.694;23.282;2023-03-22T11:12:42;94492.47;;;11.09;100.00
6464;BME280;3265;42.694;23.282;2023-03-22T11:15:22;94490.66;;;10.98;100.00
6464;BME280;3265;42.694;23.282;2023-03-22T11:17:49;94494.38;;;10.91;100.00
6464;BME280;3265;42.694;23.282;2023-03-22T11:20:18;94489.81;;;10.86;100.00
6464;BME280;3265;42.694;23.282;2023-03-22T11:22:46;94485.06;;;10.83;100.00
6464;BME280;3265;42.694;23.282;2023-03-22T11:25:16;94485.63;;;10.85;100.00
6464;BME280;3265;42.694;23.282;2023-03-22T11:27:51;94483.50;;;10.82;100.00
6464;BME280;3265;42.694;23.282;2023-03-22T11:30:20;94486.84;;;10.71;100.00
6464;BME280;3265;42.694;23.282;2023-03-22T11:32:48;94482.78;;;10.63;100.00
6464;BME280;3265;42.694;23.282;2023-03-22T11:35:29;94483.28;;;10.54;100.00
6464;BME280;3265;42.694;23.282;2023-03-22T11:38:21;94483.97;;;10.49;100.00
6464;BME280;3265;42.694;23.282;2023-03-22T11:40:56;94484.34;;;10.53;100.00
6464;BME280;3265;42.694;23.282;2023-03-22T11:43:32;94473.50;;;10.26;100.00
6464;BME280;3265;42.694;23.282;2023-03-22T11:46:00;94478.34;;;10.22;100.00
6464;BME280;3265;42.694;23.282;2023-03-22T11:48:29;94482.53;;;10.23;100.00
6464;BME280;3265;42.694;23.282;2023-03-22T11:51:04;94478.91;;;10.24;100.00
6464;BME280;3265;42.694;23.282;2023-03-22T11:53:33;94478.38;;;10.34;100.00
6464;BME280;3265;42.694;23.282;2023-03-22T11:56:03;94467.91;;;10.41;100.00
6464;BME280;3265;42.694;23.282;2023-03-22T11:58:55;94477.97;;;10.49;100.00
6464;BME280;3265;42.694;23.282;2023-03-22T12:01:31;94469.88;;;10.57;100.00
6464;BME280;3265;42.694;23.282;2023-03-22T12:04:06;94474.63;;;10.60;100.00
6464;BME280;3265;42.694;23.282;2023-03-22T12:06:38;94473.53;;;10.67;100.00
6464;BME280;3265;42.694;23.282;2023-03-22T12:09:09;94482.56;;;10.76;100.00
6464;BME280;3265;42.694;23.282;2023-03-22T12:11:39;94482.47;;;10.83;100.00
6464;BME280;3265;42.694;23.282;2023-03-22T12:14:15;94463.72;;;10.81;100.00
6464;BME280;3265;42.694;23.282;2023-03-22T12:16:47;94476.94;;;10.91;100.00
6464;BME280;3265;42.694;23.282;2023-03-22T12:19:40;94475.94;;;10.92;100.00
6464;BME280;3265;42.694;23.282;2023-03-22T12:22:14;94477.66;;;10.98;100.00
6464;BME280;3265;42.694;23.282;2023-03-22T12:24:44;94477.41;;;11.00;100.00
6464;BME280;3265;42.694;23.282;2023-03-22T12:27:16;94475.06;;;11.10;100.00
6464;BME280;3265;42.694;23.282;2023-03-22T12:29:49;94475.84;;;11.22;100.00
6464;BME280;3265;42.694;23.282;2023-03-22T12:32:21;94467.38;;;11.26;100.00
6464;BME280;3265;42.694;23.282;2023-03-22T12:34:50;94469.84;;;11.33;100.00
6464;BME280;3265;42.694;23.282;2023-03-22T12:37:23;94457.31;;;11.42;100.00
6464;BME280;3265;42.694;23.282;2023-03-22T12:39:55;94467.91;;;11.40;100.00
6464;BME280;3265;42.694;23.282;2023-03-22T12:42:26;94465.66;;;11.44;100.00
6464;BME280;3265;42.694;23.282;2023-03-22T12:45:02;94470.41;;;11.47;100.00
6464;BME280;3265;42.694;23.282;2023-03-22T12:47:35;94468.16;;;11.50;100.00
6464;BME280;3265;42.694;23.282;2023-03-22T12:50:06;94459.78;;;11.48;100.00
6464;BME280;3265;42.694;23.282;2023-03-22T12:52:39;94456.84;;;11.45;100.00
6464;BME280;3265;42.694;23.282;2023-03-22T12:55:19;94452.88;;;11.54;100.00
6464;BME280;3265;42.694;23.282;2023-03-22T12:57:46;94466.34;;;11.62;100.00
6464;BME280;3265;42.694;23.282;2023-03-22T13:00:18;94457.03;;;11.55;100.00
6464;BME280;3265;42.694;23.282;2023-03-22T13:02:51;94457.50;;;11.52;100.00
6464;BME280;3265;42.694;23.282;2023-03-22T13:05:27;94456.28;;;11.43;100.00
6464;BME280;3265;42.694;23.282;2023-03-22T13:07:57;94452.09;;;11.42;100.00
6464;BME280;3265;42.694;23.282;2023-03-22T13:10:57;94469.97;;;11.50;100.00
6464;BME280;3265;42.694;23.282;2023-03-22T13:13:51;94441.59;;;11.36;100.00
6464;BME280;3265;42.694;23.282;2023-03-22T13:16:23;94436.84;;;11.33;100.00
6464;BME280;3265;42.694;23.282;2023-03-22T13:19:26;94460.00;;;11.47;100.00
6464;BME280;3265;42.694;23.282;2023-03-22T13:22:17;94431.84;;;11.32;100.00
6464;BME280;3265;42.694;23.282;2023-03-22T13:27:54;94391.94;;;11.15;100.00
6464;BME280;3265;42.694;23.282;2023-03-22T13:30:27;94455.34;;;11.72;100.00
6464;BME280;3265;42.694;23.282;2023-03-22T13:33:00;94420.53;;;12.01;100.00
6464;BME280;3265;42.694;23.282;2023-03-22T13:35:43;94390.31;;;12.62;97.31
6464;BME280;3265;42.694;23.282;2023-03-22T13:38:19;94395.28;;;13.95;95.58
6464;BME280;3265;42.694;23.282;2023-03-22T13:40:57;94422.91;;;15.71;86.26